sensor_id;sensor_type;location;lat;lon;timestamp;pressure;altitude;pressure_sealevel;temperature;humidity
64668;BME280;51077;42.716;23.344;2023-02-17T00:01:20;96272.00;;;7.73;39.62
64668;BME280;51077;42.716;23.344;2023-02-17T00:03:47;96265.94;;;7.69;39.69
64668;BME280;51077;42.716;23.344;2023-02-17T00:06:14;96274.63;;;7.67;39.83
64668;BME280;51077;42.716;23.344;2023-02-17T00:08:39;96272.81;;;7.64;40.26
64668;BME280;51077;42.716;23.344;2023-02-17T00:11:05;96266.28;;;7.62;40.26
64668;BME280;51077;42.716;23.344;2023-02-17T00:13:31;96262.06;;;7.61;40.17
64668;BME280;51077;42.716;23.344;2023-02-17T00:15:57;96261.03;;;7.58;39.94
64668;BME280;51077;42.716;23.344;2023-02-17T00:18:22;96265.75;;;7.58;40.25
64668;BME280;51077;42.716;23.344;2023-02-17T00:20:48;96256.03;;;7.56;40.21
64668;BME280;51077;42.716;23.344;2023-02-17T00:23:13;96259.97;;;7.55;40.45
64668;BME280;51077;42.716;23.344;2023-02-17T00:25:39;96250.72;;;7.53;40.20
64668;BME280;51077;42.716;23.344;2023-02-17T00:28:05;96260.16;;;7.52;40.55
64668;BME280;51077;42.716;23.344;2023-02-17T00:30:30;96254.41;;;7.50;40.59
64668;BME280;51077;42.716;23.344;2023-02-17T00:32:55;96247.91;;;7.47;40.85
64668;BME280;51077;42.716;23.344;2023-02-17T00:35:21;96246.41;;;7.46;40.70
64668;BME280;51077;42.716;23.344;2023-02-17T00:37:46;96254.00;;;7.42;41.05
64668;BME280;51077;42.716;23.344;2023-02-17T00:40:12;96255.25;;;7.41;40.90
64668;BME280;51077;42.716;23.344;2023-02-17T00:42:38;96261.63;;;7.38;41.34
64668;BME280;51077;42.716;23.344;2023-02-17T00:45:04;96259.38;;;7.37;40.81
64668;BME280;51077;42.716;23.344;2023-02-17T00:47:30;96255.31;;;7.32;40.88
64668;BME280;51077;42.716;23.344;2023-02-17T00:49:55;96255.00;;;7.30;41.20
64668;BME280;51077;42.716;23.344;2023-02-17T00:52:21;96250.94;;;7.25;40.98
64668;BME280;51077;42.716;23.344;2023-02-17T00:54:46;96259.78;;;7.20;41.13
64668;BME280;51077;42.716;23.344;2023-02-17T00:57:11;96252.81;;;7.19;41.18
64668;BME280;51077;42.716;23.344;2023-02-17T00:59:37;96249.94;;;7.14;40.93
64668;BME280;51077;42.716;23.344;2023-02-17T01:02:02;96246.66;;;7.10;41.30
64668;BME280;51077;42.716;23.344;2023-02-17T01:04:28;96239.38;;;7.07;41.45
64668;BME280;51077;42.716;23.344;2023-02-17T01:06:53;96238.06;;;7.02;41.37
64668;BME280;51077;42.716;23.344;2023-02-17T01:09:19;96242.94;;;6.98;41.27
64668;BME280;51077;42.716;23.344;2023-02-17T01:11:44;96237.16;;;6.96;41.42
64668;BME280;51077;42.716;23.344;2023-02-17T01:14:11;96231.91;;;6.92;41.28
64668;BME280;51077;42.716;23.344;2023-02-17T01:16:38;96235.81;;;6.91;41.46
64668;BME280;51077;42.716;23.344;2023-02-17T01:19:07;96233.75;;;6.86;41.11
64668;BME280;51077;42.716;23.344;2023-02-17T01:21:33;96229.97;;;6.84;41.36
64668;BME280;51077;42.716;23.344;2023-02-17T01:24:02;96230.16;;;6.80;41.41
64668;BME280;51077;42.716;23.344;2023-02-17T01:26:29;96233.78;;;6.77;41.52
64668;BME280;51077;42.716;23.344;2023-02-17T01:28:56;96225.59;;;6.77;41.47
64668;BME280;51077;42.716;23.344;2023-02-17T01:31:22;96225.78;;;6.73;41.37
64668;BME280;51077;42.716;23.344;2023-02-17T01:33:48;96232.94;;;6.71;41.77
64668;BME280;51077;42.716;23.344;2023-02-17T01:36:15;96227.63;;;6.67;41.69
64668;BME280;51077;42.716;23.344;2023-02-17T01:38:41;96230.06;;;6.65;41.44
64668;BME280;51077;42.716;23.344;2023-02-17T01:41:08;96234.00;;;6.64;41.24
64668;BME280;51077;42.716;23.344;2023-02-17T01:43:34;96232.50;;;6.63;41.40
64668;BME280;51077;42.716;23.344;2023-02-17T01:46:02;96235.38;;;6.60;41.47
64668;BME280;51077;42.716;23.344;2023-02-17T01:48:35;96233.88;;;6.59;41.32
64668;BME280;51077;42.716;23.344;2023-02-17T01:51:07;96230.56;;;6.54;41.23
64668;BME280;51077;42.716;23.344;2023-02-17T01:53:55;96232.97;;;6.52;41.58
64668;BME280;51077;42.716;23.344;2023-02-17T01:56:23;96226.94;;;6.48;41.46
64668;BME280;51077;42.716;23.344;2023-02-17T01:58:57;96230.13;;;6.47;41.86
64668;BME280;51077;42.716;23.344;2023-02-17T02:01:24;96226.81;;;6.43;41.53
64668;BME280;51077;42.716;23.344;2023-02-17T02:03:51;96230.78;;;6.42;41.71
64668;BME280;51077;42.716;23.344;2023-02-17T02:06:20;96217.28;;;6.38;41.85
64668;BME280;51077;42.716;23.344;2023-02-17T02:08:59;96210.34;;;6.37;41.73
64668;BME280;51077;42.716;23.344;2023-02-17T02:11:26;96205.78;;;6.34;41.99
64668;BME280;51077;42.716;23.344;2023-02-17T02:13:52;96213.69;;;6.32;42.06
64668;BME280;51077;42.716;23.344;2023-02-17T02:25:04;96223.41;;;6.24;42.35
64668;BME280;51077;42.716;23.344;2023-02-17T02:33:11;96213.88;;;6.19;42.83
64668;BME280;51077;42.716;23.344;2023-02-17T02:36:04;96213.13;;;6.19;42.54
64668;BME280;51077;42.716;23.344;2023-02-17T02:39:06;96207.84;;;6.15;42.63
64668;BME280;51077;42.716;23.344;2023-02-17T02:41:40;96218.00;;;6.15;42.99
64668;BME280;51077;42.716;23.344;2023-02-17T02:44:09;96223.88;;;6.13;43.09
64668;BME280;51077;42.716;23.344;2023-02-17T02:46:35;96224.63;;;6.14;42.76
64668;BME280;51077;42.716;23.344;2023-02-17T02:49:01;96230.88;;;6.14;42.83
64668;BME280;51077;42.716;23.344;2023-02-17T02:57:17;96222.22;;;6.16;42.90
64668;BME280;51077;42.716;23.344;2023-02-17T03:10:53;96227.69;;;6.16;42.67
64668;BME280;51077;42.716;23.344;2023-02-17T03:13:19;96228.91;;;6.15;42.48
64668;BME280;51077;42.716;23.344;2023-02-17T03:15:46;96225.41;;;6.14;42.51
64668;BME280;51077;42.716;23.344;2023-02-17T03:18:12;96228.59;;;6.13;42.51
64668;BME280;51077;42.716;23.344;2023-02-17T03:20:47;96226.31;;;6.11;42.76
64668;BME280;51077;42.716;23.344;2023-02-17T03:23:13;96218.63;;;6.10;43.02
64668;BME280;51077;42.716;23.344;2023-02-17T03:25:38;96218.63;;;6.10;42.72
64668;BME280;51077;42.716;23.344;2023-02-17T03:28:04;96217.84;;;6.09;42.97
64668;BME280;51077;42.716;23.344;2023-02-17T03:30:29;96225.72;;;6.07;42.79
64668;BME280;51077;42.716;23.344;2023-02-17T03:32:55;96214.06;;;6.07;43.15
64668;BME280;51077;42.716;23.344;2023-02-17T03:35:20;96224.38;;;6.02;43.07
64668;BME280;51077;42.716;23.344;2023-02-17T03:37:45;96215.88;;;6.00;42.96
64668;BME280;51077;42.716;23.344;2023-02-17T03:40:11;96228.75;;;6.00;42.88
64668;BME280;51077;42.716;23.344;2023-02-17T03:42:36;96217.56;;;5.98;42.85
64668;BME280;51077;42.716;23.344;2023-02-17T03:45:02;96226.97;;;5.97;42.92
64668;BME280;51077;42.716;23.344;2023-02-17T03:47:28;96223.19;;;5.94;42.76
64668;BME280;51077;42.716;23.344;2023-02-17T03:49:53;96222.91;;;5.92;42.87
64668;BME280;51077;42.716;23.344;2023-02-17T03:52:18;96212.13;;;5.89;42.95
64668;BME280;51077;42.716;23.344;2023-02-17T03:54:44;96214.09;;;5.88;43.09
64668;BME280;51077;42.716;23.344;2023-02-17T03:57:09;96206.06;;;5.85;42.94
64668;BME280;51077;42.716;23.344;2023-02-17T03:59:35;96211.97;;;5.83;42.69
64668;BME280;51077;42.716;23.344;2023-02-17T04:02:01;96209.72;;;5.82;43.22
64668;BME280;51077;42.716;23.344;2023-02-17T04:04:26;96223.03;;;5.79;42.89
64668;BME280;51077;42.716;23.344;2023-02-17T04:06:52;96217.59;;;5.79;42.97
64668;BME280;51077;42.716;23.344;2023-02-17T04:09:17;96221.50;;;5.78;42.98
64668;BME280;51077;42.716;23.344;2023-02-17T04:11:43;96225.44;;;5.77;42.74
64668;BME280;51077;42.716;23.344;2023-02-17T04:14:09;96212.28;;;5.76;43.19
64668;BME280;51077;42.716;23.344;2023-02-17T04:16:34;96220.16;;;5.74;43.09
64668;BME280;51077;42.716;23.344;2023-02-17T04:19:03;96216.38;;;5.71;43.00
64668;BME280;51077;42.716;23.344;2023-02-17T04:21:28;96207.91;;;5.69;42.98
64668;BME280;51077;42.716;23.344;2023-02-17T04:23:54;96211.56;;;5.66;43.10
64668;BME280;51077;42.716;23.344;2023-02-17T04:26:19;96216.69;;;5.64;43.28
64668;BME280;51077;42.716;23.344;2023-02-17T04:28:45;96228.06;;;5.63;42.96
64668;BME280;51077;42.716;23.344;2023-02-17T04:31:10;96223.03;;;5.61;42.90
64668;BME280;51077;42.716;23.344;2023-02-17T04:33:36;96220.31;;;5.61;43.01
64668;BME280;51077;42.716;23.344;2023-02-17T04:36:02;96227.72;;;5.61;43.43
64668;BME280;51077;42.716;23.344;2023-02-17T04:38:30;96220.03;;;5.59;43.41
64668;BME280;51077;42.716;23.344;2023-02-17T04:40:57;96214.25;;;5.57;43.34
64668;BME280;51077;42.716;23.344;2023-02-17T04:43:23;96221.41;;;5.54;43.48
64668;BME280;51077;42.716;23.344;2023-02-17T04:45:49;96232.75;;;5.53;43.50
64668;BME280;51077;42.716;23.344;2023-02-17T04:48:15;96221.06;;;5.52;43.53
64668;BME280;51077;42.716;23.344;2023-02-17T04:50:40;96216.84;;;5.51;43.59
64668;BME280;51077;42.716;23.344;2023-02-17T04:53:06;96212.63;;;5.50;43.72
64668;BME280;51077;42.716;23.344;2023-02-17T04:55:32;96222.28;;;5.51;43.43
64668;BME280;51077;42.716;23.344;2023-02-17T04:57:58;96224.59;;;5.53;43.49
64668;BME280;51077;42.716;23.344;2023-02-17T05:00:23;96230.78;;;5.53;43.77
64668;BME280;51077;42.716;23.344;2023-02-17T05:02:49;96227.31;;;5.53;43.64
64668;BME280;51077;42.716;23.344;2023-02-17T05:05:14;96235.91;;;5.51;43.77
64668;BME280;51077;42.716;23.344;2023-02-17T05:07:43;96232.91;;;5.49;43.58
64668;BME280;51077;42.716;23.344;2023-02-17T05:10:09;96236.81;;;5.48;43.61
64668;BME280;51077;42.716;23.344;2023-02-17T05:12:35;96232.28;;;5.45;43.43
64668;BME280;51077;42.716;23.344;2023-02-17T05:15:00;96240.13;;;5.43;43.61
64668;BME280;51077;42.716;23.344;2023-02-17T05:17:25;96235.63;;;5.40;43.38
64668;BME280;51077;42.716;23.344;2023-02-17T05:19:51;96254.34;;;5.38;43.62
64668;BME280;51077;42.716;23.344;2023-02-17T05:22:16;96262.84;;;5.40;43.68
64668;BME280;51077;42.716;23.344;2023-02-17T05:24:42;96256.63;;;5.40;43.65
64668;BME280;51077;42.716;23.344;2023-02-17T05:27:07;96251.34;;;5.36;43.79
64668;BME280;51077;42.716;23.344;2023-02-17T05:29:33;96252.53;;;5.35;43.56
64668;BME280;51077;42.716;23.344;2023-02-17T05:31:58;96260.41;;;5.33;43.60
64668;BME280;51077;42.716;23.344;2023-02-17T05:34:24;96260.09;;;5.31;43.64
64668;BME280;51077;42.716;23.344;2023-02-17T05:36:49;96259.34;;;5.30;43.72
64668;BME280;51077;42.716;23.344;2023-02-17T05:39:14;96266.31;;;5.32;43.96
64668;BME280;51077;42.716;23.344;2023-02-17T05:41:40;96263.13;;;5.33;43.63
64668;BME280;51077;42.716;23.344;2023-02-17T05:44:06;96269.34;;;5.34;43.79
64668;BME280;51077;42.716;23.344;2023-02-17T05:46:31;96270.84;;;5.35;43.70
64668;BME280;51077;42.716;23.344;2023-02-17T05:48:57;96274.16;;;5.39;43.83
64668;BME280;51077;42.716;23.344;2023-02-17T05:51:22;96275.25;;;5.41;43.43
64668;BME280;51077;42.716;23.344;2023-02-17T05:53:47;96274.34;;;5.44;43.64
64668;BME280;51077;42.716;23.344;2023-02-17T05:56:16;96285.38;;;5.50;43.69
64668;BME280;51077;42.716;23.344;2023-02-17T05:58:42;96282.81;;;5.55;43.63
64668;BME280;51077;42.716;23.344;2023-02-17T06:01:09;96274.78;;;5.61;43.58
64668;BME280;51077;42.716;23.344;2023-02-17T06:03:35;96288.09;;;5.68;43.53
64668;BME280;51077;42.716;23.344;2023-02-17T06:06:01;96283.41;;;5.78;43.05
64668;BME280;51077;42.716;23.344;2023-02-17T06:08:26;96287.19;;;5.90;43.20
64668;BME280;51077;42.716;23.344;2023-02-17T06:10:52;96292.97;;;6.01;43.02
64668;BME280;51077;42.716;23.344;2023-02-17T06:13:18;96291.28;;;6.13;43.03
64668;BME280;51077;42.716;23.344;2023-02-17T06:15:44;96294.28;;;6.24;42.74
64668;BME280;51077;42.716;23.344;2023-02-17T06:18:10;96299.56;;;6.37;43.01
64668;BME280;51077;42.716;23.344;2023-02-17T06:20:36;96295.72;;;6.52;46.04
64668;BME280;51077;42.716;23.344;2023-02-17T06:23:02;96294.00;;;6.64;44.76
64668;BME280;51077;42.716;23.344;2023-02-17T06:25:27;96296.53;;;6.77;44.68
64668;BME280;51077;42.716;23.344;2023-02-17T06:27:52;96299.81;;;6.90;44.83
64668;BME280;51077;42.716;23.344;2023-02-17T06:30:18;96302.94;;;7.07;44.25
64668;BME280;51077;42.716;23.344;2023-02-17T06:32:45;96303.41;;;7.29;43.92
64668;BME280;51077;42.716;23.344;2023-02-17T06:35:10;96306.31;;;7.50;43.75
64668;BME280;51077;42.716;23.344;2023-02-17T06:37:35;96305.06;;;7.75;43.31
64668;BME280;51077;42.716;23.344;2023-02-17T06:40:01;96310.00;;;8.00;42.48
64668;BME280;51077;42.716;23.344;2023-02-17T06:42:26;96308.72;;;8.25;42.38
64668;BME280;51077;42.716;23.344;2023-02-17T06:44:52;96316.66;;;8.53;41.93
64668;BME280;51077;42.716;23.344;2023-02-17T06:47:17;96309.69;;;8.81;41.32
64668;BME280;51077;42.716;23.344;2023-02-17T06:49:43;96316.22;;;9.04;41.09
64668;BME280;51077;42.716;23.344;2023-02-17T06:52:08;96308.06;;;9.25;40.59
64668;BME280;51077;42.716;23.344;2023-02-17T06:54:33;96311.84;;;9.48;40.19
64668;BME280;51077;42.716;23.344;2023-02-17T06:56:59;96307.94;;;9.75;39.99
64668;BME280;51077;42.716;23.344;2023-02-17T06:59:24;96307.50;;;10.02;39.52
64668;BME280;51077;42.716;23.344;2023-02-17T07:01:50;96316.59;;;10.35;39.09
64668;BME280;51077;42.716;23.344;2023-02-17T07:04:15;96313.66;;;10.70;38.76
64668;BME280;51077;42.716;23.344;2023-02-17T07:06:41;96306.69;;;11.06;38.09
64668;BME280;51077;42.716;23.344;2023-02-17T07:09:07;96317.41;;;11.41;37.50
64668;BME280;51077;42.716;23.344;2023-02-17T07:11:32;96323.81;;;11.81;36.89
64668;BME280;51077;42.716;23.344;2023-02-17T07:13:58;96320.72;;;12.22;36.70
64668;BME280;51077;42.716;23.344;2023-02-17T07:16:24;96323.81;;;12.63;35.86
64668;BME280;51077;42.716;23.344;2023-02-17T07:18:50;96322.28;;;13.01;35.37
64668;BME280;51077;42.716;23.344;2023-02-17T07:21:16;96324.53;;;13.42;34.91
64668;BME280;51077;42.716;23.344;2023-02-17T07:23:41;96322.13;;;13.80;34.29
64668;BME280;51077;42.716;23.344;2023-02-17T07:26:08;96322.72;;;14.20;33.94
64668;BME280;51077;42.716;23.344;2023-02-17T07:28:35;96328.03;;;14.59;33.38
64668;BME280;51077;42.716;23.344;2023-02-17T07:31:09;96334.50;;;15.03;33.02
64668;BME280;51077;42.716;23.344;2023-02-17T07:33:36;96327.38;;;15.38;32.26
64668;BME280;51077;42.716;23.344;2023-02-17T07:36:19;96328.72;;;15.80;31.67
64668;BME280;51077;42.716;23.344;2023-02-17T07:38:45;96337.31;;;16.20;31.36
64668;BME280;51077;42.716;23.344;2023-02-17T07:41:18;96341.31;;;16.56;31.06
64668;BME280;51077;42.716;23.344;2023-02-17T07:43:44;96337.25;;;16.95;30.42
64668;BME280;51077;42.716;23.344;2023-02-17T07:46:10;96335.63;;;17.32;29.96
64668;BME280;51077;42.716;23.344;2023-02-17T07:48:36;96332.47;;;17.68;29.59
64668;BME280;51077;42.716;23.344;2023-02-17T07:51:07;96325.19;;;18.04;29.08
64668;BME280;51077;42.716;23.344;2023-02-17T07:53:33;96325.25;;;18.39;28.58
64668;BME280;51077;42.716;23.344;2023-02-17T07:56:02;96322.25;;;18.71;27.96
64668;BME280;51077;42.716;23.344;2023-02-17T07:58:30;96329.81;;;19.04;28.02
64668;BME280;51077;42.716;23.344;2023-02-17T08:00:56;96326.53;;;19.34;27.55
64668;BME280;51077;42.716;23.344;2023-02-17T08:03:21;96337.19;;;19.65;27.19
64668;BME280;51077;42.716;23.344;2023-02-17T08:05:47;96331.56;;;19.93;27.01
64668;BME280;51077;42.716;23.344;2023-02-17T08:08:15;96328.94;;;20.24;26.81
64668;BME280;51077;42.716;23.344;2023-02-17T08:11:00;96327.97;;;20.57;26.60
64668;BME280;51077;42.716;23.344;2023-02-17T08:13:44;96325.06;;;20.94;26.13
64668;BME280;51077;42.716;23.344;2023-02-17T08:16:10;96323.06;;;21.25;25.78
64668;BME280;51077;42.716;23.344;2023-02-17T08:18:35;96324.53;;;21.56;25.42
64668;BME280;51077;42.716;23.344;2023-02-17T08:21:00;96325.81;;;21.86;24.94
64668;BME280;51077;42.716;23.344;2023-02-17T08:23:26;96321.28;;;22.14;24.62
64668;BME280;51077;42.716;23.344;2023-02-17T08:25:51;96315.72;;;22.46;24.57
64668;BME280;51077;42.716;23.344;2023-02-17T08:28:17;96324.13;;;22.79;24.13
64668;BME280;51077;42.716;23.344;2023-02-17T08:30:42;96318.34;;;23.10;23.79
64668;BME280;51077;42.716;23.344;2023-02-17T08:33:08;96314.38;;;23.38;23.64
64668;BME280;51077;42.716;23.344;2023-02-17T08:35:33;96313.97;;;23.66;23.40
64668;BME280;51077;42.716;23.344;2023-02-17T08:37:58;96314.97;;;23.96;23.16
64668;BME280;51077;42.716;23.344;2023-02-17T08:40:24;96309.44;;;24.23;22.90
64668;BME280;51077;42.716;23.344;2023-02-17T08:42:49;96306.28;;;24.53;22.56
64668;BME280;51077;42.716;23.344;2023-02-17T08:45:15;96301.06;;;24.77;22.33
64668;BME280;51077;42.716;23.344;2023-02-17T08:47:41;96311.84;;;25.07;21.92
64668;BME280;51077;42.716;23.344;2023-02-17T08:50:08;96304.59;;;25.31;21.70
64668;BME280;51077;42.716;23.344;2023-02-17T08:52:34;96305.09;;;25.57;21.54
64668;BME280;51077;42.716;23.344;2023-02-17T08:54:59;96305.59;;;25.83;21.22
64668;BME280;51077;42.716;23.344;2023-02-17T08:57:25;96297.16;;;26.12;21.00
64668;BME280;51077;42.716;23.344;2023-02-17T08:59:51;96312.88;;;26.34;20.75
64668;BME280;51077;42.716;23.344;2023-02-17T09:02:17;96310.94;;;26.56;20.74
64668;BME280;51077;42.716;23.344;2023-02-17T09:04:43;96304.34;;;26.83;20.31
64668;BME280;51077;42.716;23.344;2023-02-17T09:07:10;96288.38;;;27.06;19.97
64668;BME280;51077;42.716;23.344;2023-02-17T09:09:36;96297.19;;;27.32;19.85
64668;BME280;51077;42.716;23.344;2023-02-17T09:12:02;96293.19;;;27.56;19.91
64668;BME280;51077;42.716;23.344;2023-02-17T09:14:27;96295.72;;;27.84;19.59
64668;BME280;51077;42.716;23.344;2023-02-17T09:16:53;96293.16;;;28.09;19.41
64668;BME280;51077;42.716;23.344;2023-02-17T09:19:20;96285.03;;;28.37;19.19
64668;BME280;51077;42.716;23.344;2023-02-17T09:21:46;96278.84;;;28.62;18.75
64668;BME280;51077;42.716;23.344;2023-02-17T09:24:13;96285.91;;;28.84;18.53
64668;BME280;51077;42.716;23.344;2023-02-17T09:26:38;96285.44;;;29.11;18.09
64668;BME280;51077;42.716;23.344;2023-02-17T09:29:04;96285.44;;;29.35;17.73
64668;BME280;51077;42.716;23.344;2023-02-17T09:31:30;96283.25;;;29.57;17.92
64668;BME280;51077;42.716;23.344;2023-02-17T09:33:56;96287.47;;;29.81;17.45
64668;BME280;51077;42.716;23.344;2023-02-17T09:36:25;96280.16;;;30.01;17.33
64668;BME280;51077;42.716;23.344;2023-02-17T09:38:52;96279.75;;;30.19;17.03
64668;BME280;51077;42.716;23.344;2023-02-17T09:41:22;96277.13;;;30.35;17.10
64668;BME280;51077;42.716;23.344;2023-02-17T09:43:49;96272.69;;;30.57;16.68
64668;BME280;51077;42.716;23.344;2023-02-17T09:46:22;96273.91;;;30.79;16.15
64668;BME280;51077;42.716;23.344;2023-02-17T09:48:53;96268.69;;;31.01;16.24
64668;BME280;51077;42.716;23.344;2023-02-17T09:51:26;96273.00;;;31.16;16.30
64668;BME280;51077;42.716;23.344;2023-02-17T09:54:05;96269.47;;;31.29;15.79
64668;BME280;51077;42.716;23.344;2023-02-17T09:56:43;96273.88;;;31.60;15.49
64668;BME280;51077;42.716;23.344;2023-02-17T10:01:49;96268.72;;;31.84;16.04
64668;BME280;51077;42.716;23.344;2023-02-17T10:04:21;96268.25;;;32.03;15.44
64668;BME280;51077;42.716;23.344;2023-02-17T10:06:49;96258.94;;;32.17;15.20
64668;BME280;51077;42.716;23.344;2023-02-17T10:09:29;96263.47;;;32.22;15.21
64668;BME280;51077;42.716;23.344;2023-02-17T10:12:03;96268.59;;;32.39;15.11
64668;BME280;51077;42.716;23.344;2023-02-17T10:14:56;96254.22;;;32.51;14.87
64668;BME280;51077;42.716;23.344;2023-02-17T10:20:06;96242.25;;;32.84;14.72
64668;BME280;51077;42.716;23.344;2023-02-17T10:22:33;96243.44;;;32.95;14.58
64668;BME280;51077;42.716;23.344;2023-02-17T10:25:00;96238.22;;;33.05;14.63
64668;BME280;51077;42.716;23.344;2023-02-17T10:27:40;96221.31;;;33.25;14.34
64668;BME280;51077;42.716;23.344;2023-02-17T10:33:00;96223.78;;;33.33;14.18
64668;BME280;51077;42.716;23.344;2023-02-17T10:40:54;96206.28;;;33.56;13.19
64668;BME280;51077;42.716;23.344;2023-02-17T10:43:23;96200.38;;;33.68;13.36
64668;BME280;51077;42.716;23.344;2023-02-17T10:45:51;96208.75;;;33.82;13.04
64668;BME280;51077;42.716;23.344;2023-02-17T10:50:46;96203.56;;;33.94;12.87
64668;BME280;51077;42.716;23.344;2023-02-17T10:53:21;96201.56;;;33.96;12.75
64668;BME280;51077;42.716;23.344;2023-02-17T10:55:52;96189.53;;;33.98;12.20
64668;BME280;51077;42.716;23.344;2023-02-17T10:58:25;96190.47;;;34.05;12.71
64668;BME280;51077;42.716;23.344;2023-02-17T11:00:53;96188.94;;;34.19;12.31
64668;BME280;51077;42.716;23.344;2023-02-17T11:03:24;96195.06;;;34.12;12.50
64668;BME280;51077;42.716;23.344;2023-02-17T11:06:03;96196.94;;;34.23;12.16
64668;BME280;51077;42.716;23.344;2023-02-17T11:11:11;96194.66;;;34.19;12.33
64668;BME280;51077;42.716;23.344;2023-02-17T11:14:21;96180.63;;;34.25;12.30
64668;BME280;51077;42.716;23.344;2023-02-17T11:16:53;96180.88;;;34.32;11.73
64668;BME280;51077;42.716;23.344;2023-02-17T11:19:26;96183.78;;;34.34;11.83
64668;BME280;51077;42.716;23.344;2023-02-17T11:21:54;96182.72;;;34.43;11.59
64668;BME280;51077;42.716;23.344;2023-02-17T11:24:20;96181.75;;;34.54;11.84
64668;BME280;51077;42.716;23.344;2023-02-17T11:26:57;96182.13;;;34.46;12.75
64668;BME280;51077;42.716;23.344;2023-02-17T11:29:24;96171.25;;;34.41;12.66
64668;BME280;51077;42.716;23.344;2023-02-17T11:31:58;96166.03;;;34.53;12.68
64668;BME280;51077;42.716;23.344;2023-02-17T11:34:28;96164.72;;;34.56;12.92
64668;BME280;51077;42.716;23.344;2023-02-17T11:39:29;96160.28;;;34.71;13.00
64668;BME280;51077;42.716;23.344;2023-02-17T11:41:54;96163.34;;;34.77;13.17
64668;BME280;51077;42.716;23.344;2023-02-17T11:44:25;96151.66;;;34.89;13.22
64668;BME280;51077;42.716;23.344;2023-02-17T11:46:58;96153.09;;;34.90;13.86
64668;BME280;51077;42.716;23.344;2023-02-17T11:49:51;96151.66;;;35.09;14.09
64668;BME280;51077;42.716;23.344;2023-02-17T11:57:53;96135.03;;;35.23;13.17
64668;BME280;51077;42.716;23.344;2023-02-17T12:00:35;96144.91;;;35.20;13.10
64668;BME280;51077;42.716;23.344;2023-02-17T12:06:10;96141.19;;;35.15;12.66
64668;BME280;51077;42.716;23.344;2023-02-17T12:17:10;96116.31;;;35.18;12.59
64668;BME280;51077;42.716;23.344;2023-02-17T12:20:04;96120.41;;;35.13;12.48
64668;BME280;51077;42.716;23.344;2023-02-17T12:25:34;96102.91;;;35.00;12.59
64668;BME280;51077;42.716;23.344;2023-02-17T12:36:19;96096.28;;;34.76;12.41
64668;BME280;51077;42.716;23.344;2023-02-17T12:39:01;96086.56;;;34.63;12.02
64668;BME280;51077;42.716;23.344;2023-02-17T12:41:36;96082.91;;;34.61;12.16
64668;BME280;51077;42.716;23.344;2023-02-17T12:44:16;96086.22;;;34.53;12.34
64668;BME280;51077;42.716;23.344;2023-02-17T12:46:46;96093.41;;;34.36;12.73
64668;BME280;51077;42.716;23.344;2023-02-17T12:49:18;96079.88;;;34.37;12.67
64668;BME280;51077;42.716;23.344;2023-02-17T12:54:54;96078.91;;;34.30;12.65
64668;BME280;51077;42.716;23.344;2023-02-17T12:57:46;96069.34;;;34.21;12.88
64668;BME280;51077;42.716;23.344;2023-02-17T13:00:22;96075.91;;;34.26;12.87
64668;BME280;51077;42.716;23.344;2023-02-17T13:02:49;96071.75;;;34.29;12.58
64668;BME280;51077;42.716;23.344;2023-02-17T13:08:25;96069.84;;;34.16;12.94
64668;BME280;51077;42.716;23.344;2023-02-17T13:10:42;96065.81;;;34.03;12.77
64668;BME280;51077;42.716;23.344;2023-02-17T13:13:09;96072.06;;;33.99;12.87
64668;BME280;51077;42.716;23.344;2023-02-17T13:18:29;96061.09;;;33.74;12.96
64668;BME280;51077;42.716;23.344;2023-02-17T13:21:00;96059.81;;;33.59;13.04
64668;BME280;51077;42.716;23.344;2023-02-17T13:23:39;96065.31;;;33.37;13.12
64668;BME280;51077;42.716;23.344;2023-02-17T13:26:22;96068.81;;;33.36;13.30
64668;BME280;51077;42.716;23.344;2023-02-17T13:28:50;96059.31;;;33.29;13.42
64668;BME280;51077;42.716;23.344;2023-02-17T13:31:25;96049.22;;;33.26;13.44
64668;BME280;51077;42.716;23.344;2023-02-17T13:33:56;96056.44;;;33.11;13.49
64668;BME280;51077;42.716;23.344;2023-02-17T13:39:02;96051.75;;;32.84;13.45
64668;BME280;51077;42.716;23.344;2023-02-17T13:41:33;96053.69;;;32.64;13.74
64668;BME280;51077;42.716;23.344;2023-02-17T13:43:59;96055.66;;;32.43;13.91
64668;BME280;51077;42.716;23.344;2023-02-17T13:46:29;96044.09;;;32.23;14.14
64668;BME280;51077;42.716;23.344;2023-02-17T13:49:01;96036.41;;;32.10;14.33
64668;BME280;51077;42.716;23.344;2023-02-17T13:51:30;96048.47;;;31.95;14.56
64668;BME280;51077;42.716;23.344;2023-02-17T13:53:56;96049.53;;;31.72;14.26
64668;BME280;51077;42.716;23.344;2023-02-17T13:56:29;96058.06;;;31.42;14.80
64668;BME280;51077;42.716;23.344;2023-02-17T13:59:15;96056.13;;;31.17;14.40
64668;BME280;51077;42.716;23.344;2023-02-17T14:01:45;96053.94;;;31.02;14.81
64668;BME280;51077;42.716;23.344;2023-02-17T14:04:26;96050.31;;;30.86;14.88
64668;BME280;51077;42.716;23.344;2023-02-17T14:06:55;96057.56;;;30.61;14.80
64668;BME280;51077;42.716;23.344;2023-02-17T14:09:22;96057.88;;;30.53;15.08
64668;BME280;51077;42.716;23.344;2023-02-17T14:11:50;96061.44;;;30.40;15.17
64668;BME280;51077;42.716;23.344;2023-02-17T14:14:17;96055.22;;;30.30;14.87
64668;BME280;51077;42.716;23.344;2023-02-17T14:16:43;96055.34;;;30.18;15.08
64668;BME280;51077;42.716;23.344;2023-02-17T14:19:14;96055.06;;;30.00;15.06
64668;BME280;51077;42.716;23.344;2023-02-17T14:22:02;96056.78;;;29.80;15.38
64668;BME280;51077;42.716;23.344;2023-02-17T14:24:31;96059.00;;;29.56;15.60
64668;BME280;51077;42.716;23.344;2023-02-17T14:27:05;96048.66;;;29.35;15.60
64668;BME280;51077;42.716;23.344;2023-02-17T14:29:45;96052.91;;;29.11;15.69
64668;BME280;51077;42.716;23.344;2023-02-17T14:32:36;96045.81;;;28.86;16.03
64668;BME280;51077;42.716;23.344;2023-02-17T14:35:22;96052.41;;;28.65;16.20